Time;durP1;ratioP1;P1;durP2;ratioP2;P2;SDS_P1;SDS_P2;PMS_P1;PMS_P2;Temp;Humidity;BMP_temperature;BMP_pressure;BME280_temperature;BME280_humidity;BME280_pressure;Samples;Min_cycle;Max_cycle;Signal;HPM_P1;HPM_P2
2023/04/23 00:02:12;;;;;;;43.67;27.27;;;10.00;99.90;;;;;;5075343;28;20207;-59
2023/04/23 00:04:44;;;;;;;46.03;27.37;;;10.00;99.90;;;;;;5054505;28;20263;-59
2023/04/23 00:07:13;;;;;;;43.20;26.33;;;10.10;99.90;;;;;;5073004;28;20213;-59
2023/04/23 00:09:43;;;;;;;42.40;27.47;;;10.10;99.90;;;;;;5060543;28;20717;-60
2023/04/23 00:12:11;;;;;;;41.47;25.80;;;10.00;99.90;;;;;;5078430;28;20204;-59
2023/04/23 00:14:38;;;;;;;43.13;25.87;;;10.00;99.90;;;;;;5056434;28;21850;-59
2023/04/23 00:17:05;;;;;;;40.97;25.53;;;10.00;99.90;;;;;;5075867;28;20238;-59
2023/04/23 00:19:32;;;;;;;43.50;26.80;;;9.80;99.90;;;;;;5077051;28;20229;-59
2023/04/23 00:21:59;;;;;;;39.50;25.77;;;9.90;99.90;;;;;;5075091;28;20293;-59
2023/04/23 00:24:26;;;;;;;38.43;24.53;;;9.90;99.90;;;;;;5056107;28;20203;-59
2023/04/23 00:26:53;;;;;;;42.47;26.27;;;9.90;99.90;;;;;;5076445;28;20459;-59
2023/04/23 00:29:19;;;;;;;41.83;25.83;;;9.80;99.90;;;;;;5078446;28;20259;-59
2023/04/23 00:31:46;;;;;;;41.97;25.20;;;9.90;99.90;;;;;;5074268;28;20272;-59
2023/04/23 00:34:13;;;;;;;42.37;25.30;;;9.90;99.90;;;;;;5076425;28;20636;-59
2023/04/23 00:36:40;;;;;;;36.57;24.87;;;9.90;99.90;;;;;;5075135;28;20208;-59
2023/04/23 00:39:07;;;;;;;38.13;24.10;;;9.90;99.90;;;;;;5076235;28;20229;-59
2023/04/23 00:41:34;;;;;;;37.00;23.87;;;9.90;99.90;;;;;;5075373;28;20203;-59
2023/04/23 00:44:02;;;;;;;36.77;23.47;;;9.90;99.90;;;;;;5072302;28;20247;-59
2023/04/23 00:46:28;;;;;;;41.70;25.23;;;9.90;99.90;;;;;;5071592;28;21082;-59
2023/04/23 00:48:56;;;;;;;38.40;24.57;;;9.90;99.90;;;;;;5074636;28;20618;-59
2023/04/23 00:51:23;;;;;;;38.90;23.67;;;9.90;99.90;;;;;;5074407;28;20511;-59
2023/04/23 00:53:50;;;;;;;37.50;23.33;;;9.80;99.90;;;;;;5073501;28;20277;-59
2023/04/23 00:56:17;;;;;;;42.57;24.00;;;9.90;99.90;;;;;;5076636;28;20706;-59
2023/04/23 00:58:44;;;;;;;35.20;23.23;;;9.90;99.90;;;;;;5078144;28;20203;-59
2023/04/23 01:01:12;;;;;;;38.63;23.53;;;9.90;99.90;;;;;;5074368;28;20432;-59
2023/04/23 01:03:41;;;;;;;38.63;24.27;;;9.80;99.90;;;;;;5077246;28;20295;-59
2023/04/23 01:06:08;;;;;;;32.77;22.17;;;9.80;99.90;;;;;;5076329;28;20732;-59
2023/04/23 01:08:37;;;;;;;34.93;23.17;;;9.80;99.90;;;;;;5071768;28;20281;-59
2023/04/23 01:11:04;;;;;;;37.47;23.87;;;9.90;99.90;;;;;;5075337;28;20222;-59
2023/04/23 01:13:32;;;;;;;35.57;23.57;;;9.90;99.90;;;;;;5074638;28;21118;-59
2023/04/23 01:15:59;;;;;;;37.90;23.80;;;9.90;99.90;;;;;;5073528;28;20224;-59
2023/04/23 01:18:26;;;;;;;39.70;24.70;;;9.90;99.90;;;;;;5072633;28;20230;-60
2023/04/23 01:20:53;;;;;;;36.73;24.03;;;9.90;99.90;;;;;;5056360;28;20285;-59
2023/04/23 01:23:21;;;;;;;34.63;23.73;;;9.90;99.90;;;;;;5056137;28;20736;-60
2023/04/23 01:25:48;;;;;;;37.70;25.30;;;9.80;99.90;;;;;;5070240;28;20612;-59
2023/04/23 01:28:15;;;;;;;37.33;23.70;;;9.80;99.90;;;;;;5071984;28;20214;-59
2023/04/23 01:30:43;;;;;;;33.30;23.27;;;9.90;99.90;;;;;;5071940;28;20276;-59
2023/04/23 01:33:10;;;;;;;41.10;25.40;;;9.90;99.90;;;;;;5044227;28;20245;-59
2023/04/23 01:35:39;;;;;;;40.67;25.17;;;9.80;99.90;;;;;;5072507;28;20260;-59
2023/04/23 01:38:09;;;;;;;39.90;24.90;;;9.80;99.90;;;;;;5072869;28;20260;-58
2023/04/23 01:40:37;;;;;;;41.77;24.97;;;9.70;99.90;;;;;;5071761;28;20473;-58
2023/04/23 01:43:06;;;;;;;38.70;24.47;;;9.70;99.90;;;;;;5072632;28;20195;-58
2023/04/23 01:45:33;;;;;;;37.83;24.63;;;9.70;99.90;;;;;;5065995;28;20209;-59
2023/04/23 01:48:00;;;;;;;37.83;24.23;;;9.70;99.90;;;;;;5056594;28;20325;-58
2023/04/23 01:50:28;;;;;;;39.73;25.20;;;9.70;99.90;;;;;;5054070;28;20199;-58
2023/04/23 01:52:55;;;;;;;38.90;24.27;;;9.70;99.90;;;;;;5073208;28;20205;-58
2023/04/23 01:55:22;;;;;;;37.40;24.00;;;9.80;99.90;;;;;;5055698;28;20239;-61
2023/04/23 01:57:50;;;;;;;40.97;24.30;;;9.70;99.90;;;;;;5057853;28;20212;-58
2023/04/23 02:00:17;;;;;;;37.90;23.73;;;9.70;99.90;;;;;;5073289;28;20202;-60
2023/04/23 02:02:44;;;;;;;36.00;22.60;;;9.70;99.90;;;;;;5076671;28;20645;-58
2023/04/23 02:05:17;;;;;;;38.93;23.97;;;9.80;99.90;;;;;;5074978;28;20237;-58
2023/04/23 02:07:45;;;;;;;35.60;22.27;;;9.70;99.90;;;;;;5052555;28;20242;-58
2023/04/23 02:10:12;;;;;;;39.40;24.27;;;9.70;99.90;;;;;;5058416;28;20731;-58
2023/04/23 02:12:39;;;;;;;36.23;23.37;;;9.80;99.90;;;;;;5073466;28;20305;-58
2023/04/23 02:15:08;;;;;;;35.70;22.70;;;9.80;99.90;;;;;;5051464;28;20235;-61
2023/04/23 02:17:35;;;;;;;38.07;23.60;;;9.80;99.90;;;;;;5039615;28;20275;-58
2023/04/23 02:20:02;;;;;;;37.67;22.80;;;9.80;99.90;;;;;;5053864;28;20206;-58
2023/04/23 02:22:30;;;;;;;33.07;22.13;;;9.80;99.90;;;;;;5071642;28;20291;-58
2023/04/23 02:24:57;;;;;;;32.67;21.37;;;9.70;99.90;;;;;;5071978;28;20659;-58
2023/04/23 02:27:24;;;;;;;32.10;20.93;;;9.60;99.90;;;;;;5054910;28;20215;-58
2023/04/23 02:29:52;;;;;;;30.33;20.67;;;9.60;99.90;;;;;;5071319;28;20209;-59
2023/04/23 02:32:19;;;;;;;31.93;21.07;;;9.70;99.90;;;;;;5054491;28;22125;-59
2023/04/23 02:34:46;;;;;;;29.47;20.13;;;9.70;99.90;;;;;;5071342;28;20195;-58
2023/04/23 02:37:13;;;;;;;30.17;19.77;;;9.80;99.90;;;;;;5054178;28;20667;-58
2023/04/23 02:39:39;;;;;;;31.30;20.27;;;9.80;99.90;;;;;;5073489;28;20207;-59
2023/04/23 02:42:06;;;;;;;27.23;19.20;;;9.80;99.90;;;;;;5073491;28;20293;-59
2023/04/23 02:44:33;;;;;;;27.93;18.20;;;9.60;99.90;;;;;;5073430;28;20300;-59
2023/04/23 02:47:00;;;;;;;32.77;19.83;;;9.70;99.90;;;;;;5053692;28;20311;-59
2023/04/23 02:49:27;;;;;;;29.40;20.10;;;9.60;99.90;;;;;;5070366;28;20268;-59
2023/04/23 02:51:54;;;;;;;28.93;18.53;;;9.60;99.90;;;;;;5070564;28;20664;-59
2023/04/23 02:54:21;;;;;;;28.33;18.97;;;9.50;99.90;;;;;;5044764;28;20732;-59
2023/04/23 02:56:48;;;;;;;24.33;17.27;;;9.60;99.90;;;;;;5071203;28;20672;-59
2023/04/23 02:59:15;;;;;;;25.10;16.70;;;9.60;99.90;;;;;;5070561;28;20264;-59
2023/04/23 03:01:41;;;;;;;26.03;17.17;;;9.70;99.90;;;;;;5071636;28;20654;-59
2023/04/23 03:04:08;;;;;;;20.60;15.97;;;9.70;99.90;;;;;;5035105;28;20205;-59
2023/04/23 03:06:36;;;;;;;25.40;16.67;;;9.70;99.90;;;;;;5070497;28;20293;-59
2023/04/23 03:09:03;;;;;;;22.07;16.23;;;9.70;99.90;;;;;;5055873;28;20287;-59
2023/04/23 03:11:30;;;;;;;23.97;16.13;;;9.90;99.90;;;;;;5069944;28;20203;-61
2023/04/23 03:13:57;;;;;;;22.50;15.83;;;9.90;99.90;;;;;;5052745;28;20562;-59
2023/04/23 03:16:27;;;;;;;21.97;16.10;;;9.90;99.90;;;;;;5051108;28;20195;-59
2023/04/23 03:18:55;;;;;;;20.17;14.67;;;10.00;99.90;;;;;;5056971;28;20218;-59
2023/04/23 03:21:22;;;;;;;21.67;15.60;;;10.00;99.90;;;;;;5075032;28;20295;-59
2023/04/23 03:23:49;;;;;;;20.50;15.37;;;10.00;99.90;;;;;;5074801;28;20298;-59
2023/04/23 03:26:15;;;;;;;18.80;14.90;;;10.10;99.90;;;;;;5076252;28;20295;-59
2023/04/23 03:28:42;;;;;;;21.60;16.03;;;10.00;99.90;;;;;;5058851;28;20214;-59
2023/04/23 03:31:09;;;;;;;24.13;16.17;;;10.10;99.90;;;;;;5072711;28;20263;-59
2023/04/23 03:33:36;;;;;;;20.67;14.90;;;10.00;99.90;;;;;;5075248;28;20205;-59
2023/04/23 03:36:04;;;;;;;20.63;14.73;;;10.00;99.90;;;;;;5052755;28;20200;-59
2023/04/23 03:38:31;;;;;;;20.63;15.63;;;9.90;99.90;;;;;;5074330;28;20222;-59
2023/04/23 03:40:58;;;;;;;19.03;14.97;;;9.90;99.90;;;;;;5072924;28;20748;-59
2023/04/23 03:43:25;;;;;;;23.87;15.80;;;10.00;99.90;;;;;;5074979;28;20201;-59
2023/04/23 03:45:51;;;;;;;21.90;15.27;;;10.00;99.90;;;;;;5070923;28;20244;-59
2023/04/23 03:48:20;;;;;;;20.63;14.73;;;10.00;99.90;;;;;;5073084;28;20273;-59
2023/04/23 03:50:47;;;;;;;19.87;14.77;;;9.90;99.90;;;;;;5073803;28;21079;-59
2023/04/23 03:53:14;;;;;;;18.80;14.53;;;10.00;99.90;;;;;;5043364;28;20204;-59
2023/04/23 03:55:41;;;;;;;21.37;14.97;;;10.00;99.90;;;;;;5041979;28;22051;-59
2023/04/23 03:58:08;;;;;;;19.67;15.50;;;10.00;99.90;;;;;;5038318;28;20249;-59
2023/04/23 04:00:35;;;;;;;18.93;14.17;;;10.00;99.90;;;;;;5036170;28;20736;-59
2023/04/23 04:03:03;;;;;;;19.63;13.97;;;10.00;99.90;;;;;;5039183;28;20274;-59
2023/04/23 04:05:30;;;;;;;19.13;14.63;;;9.90;99.90;;;;;;5034069;28;20204;-59
2023/04/23 04:07:57;;;;;;;19.43;15.13;;;9.90;99.90;;;;;;5035770;28;20223;-58
2023/04/23 04:10:24;;;;;;;20.27;14.77;;;10.00;99.90;;;;;;5036295;28;20250;-59
2023/04/23 04:12:51;;;;;;;20.50;15.17;;;10.10;99.90;;;;;;5036640;28;20235;-58
2023/04/23 04:15:19;;;;;;;19.07;14.70;;;10.00;99.90;;;;;;5032973;28;20207;-59
2023/04/23 04:17:46;;;;;;;17.63;14.63;;;10.10;99.90;;;;;;5036885;28;20715;-59
2023/04/23 04:20:13;;;;;;;20.87;15.13;;;10.20;99.90;;;;;;5031430;28;20257;-59
2023/04/23 04:22:40;;;;;;;17.47;14.27;;;10.20;99.90;;;;;;5033694;28;20219;-59
2023/04/23 04:25:07;;;;;;;19.60;13.80;;;10.10;99.90;;;;;;5033969;28;20304;-59
2023/04/23 04:27:34;;;;;;;19.53;13.53;;;10.10;99.90;;;;;;5033715;28;20471;-59
2023/04/23 04:30:02;;;;;;;19.43;14.63;;;10.10;99.90;;;;;;5032424;28;20218;-59
2023/04/23 04:32:28;;;;;;;20.10;14.33;;;10.20;99.90;;;;;;5034850;28;20218;-58
2023/04/23 04:34:56;;;;;;;17.67;14.10;;;10.00;99.90;;;;;;5032673;28;20707;-59
2023/04/23 04:37:23;;;;;;;18.83;14.83;;;10.20;99.90;;;;;;5035756;28;20297;-59
2023/04/23 04:39:50;;;;;;;18.97;14.40;;;10.20;99.90;;;;;;5032809;28;20228;-59
2023/04/23 04:42:17;;;;;;;18.27;14.57;;;10.30;99.90;;;;;;5033957;28;20214;-59
2023/04/23 04:44:44;;;;;;;17.20;13.33;;;10.30;99.90;;;;;;5032865;28;20225;-59
2023/04/23 04:47:12;;;;;;;17.90;13.73;;;10.40;99.90;;;;;;5032681;28;20200;-58
2023/04/23 04:49:39;;;;;;;18.13;13.67;;;10.40;99.90;;;;;;5031853;28;20213;-58
2023/04/23 04:52:06;;;;;;;19.83;14.23;;;10.30;99.90;;;;;;5036609;28;20262;-59
2023/04/23 04:54:33;;;;;;;16.90;13.13;;;10.40;99.90;;;;;;5035030;28;20923;-59
2023/04/23 04:57:01;;;;;;;18.73;13.87;;;10.40;99.90;;;;;;5035810;28;20247;-59
2023/04/23 04:59:28;;;;;;;18.63;13.53;;;10.40;99.90;;;;;;5033174;28;20208;-59
2023/04/23 05:01:55;;;;;;;20.03;14.07;;;10.20;99.90;;;;;;5034197;28;20716;-59
2023/04/23 05:04:22;;;;;;;17.50;13.00;;;10.30;99.90;;;;;;5031824;28;20206;-59
2023/04/23 05:06:49;;;;;;;16.23;12.70;;;10.20;99.90;;;;;;5035792;28;20335;-58
2023/04/23 05:09:16;;;;;;;16.57;12.83;;;10.10;99.90;;;;;;5034982;28;20217;-59
2023/04/23 05:11:43;;;;;;;18.00;13.50;;;10.10;99.90;;;;;;5034907;28;20196;-59
2023/04/23 05:14:10;;;;;;;17.47;13.80;;;10.10;99.90;;;;;;5035628;28;20322;-59
2023/04/23 05:16:36;;;;;;;18.77;13.57;;;10.10;99.90;;;;;;5034643;28;20221;-58
2023/04/23 05:19:03;;;;;;;18.10;13.77;;;10.00;99.90;;;;;;5033836;28;20227;-58
2023/04/23 05:21:30;;;;;;;17.17;13.63;;;10.00;99.90;;;;;;5018090;28;20202;-58
2023/04/23 05:23:57;;;;;;;18.03;13.43;;;10.10;99.90;;;;;;5037602;28;20290;-58
2023/04/23 05:26:24;;;;;;;17.23;13.13;;;10.10;99.90;;;;;;5036328;28;20557;-58
2023/04/23 05:28:51;;;;;;;17.67;13.23;;;10.10;99.90;;;;;;5033600;28;20730;-59
2023/04/23 05:31:18;;;;;;;18.00;13.87;;;10.10;99.90;;;;;;5032396;28;20309;-59
2023/04/23 05:33:46;;;;;;;16.93;13.30;;;10.20;99.90;;;;;;5032654;28;20864;-58
2023/04/23 05:36:17;;;;;;;17.87;13.10;;;10.30;99.90;;;;;;5017780;28;20229;-58
2023/04/23 05:38:44;;;;;;;18.37;12.90;;;10.30;99.90;;;;;;5033518;28;20214;-58
2023/04/23 05:41:11;;;;;;;15.57;13.03;;;10.40;99.90;;;;;;5034432;28;20623;-61
2023/04/23 05:43:38;;;;;;;18.47;13.57;;;10.20;99.90;;;;;;5032345;28;20699;-58
2023/04/23 05:46:06;;;;;;;17.70;13.33;;;10.20;99.90;;;;;;5030962;28;20929;-59
2023/04/23 05:48:33;;;;;;;15.87;12.70;;;10.20;99.90;;;;;;5033058;28;20226;-58
2023/04/23 05:51:00;;;;;;;17.97;12.47;;;10.30;99.90;;;;;;5034738;28;20276;-58
2023/04/23 05:53:27;;;;;;;16.80;13.37;;;10.40;99.90;;;;;;5035358;28;20252;-58
2023/04/23 05:55:54;;;;;;;15.30;12.03;;;10.50;99.90;;;;;;5056179;28;20303;-57
2023/04/23 05:58:22;;;;;;;17.33;12.37;;;10.50;99.90;;;;;;5058440;28;20212;-61
2023/04/23 06:00:49;;;;;;;19.33;13.00;;;10.50;99.90;;;;;;5065845;28;20652;-57
2023/04/23 06:03:16;;;;;;;19.00;12.30;;;10.60;99.90;;;;;;5052188;28;20302;-58
2023/04/23 06:05:43;;;;;;;15.17;12.27;;;10.60;99.90;;;;;;5057607;28;20264;-58
2023/04/23 06:08:10;;;;;;;16.20;12.70;;;10.60;99.90;;;;;;5069294;28;20236;-57
2023/04/23 06:10:37;;;;;;;16.00;12.27;;;10.50;99.90;;;;;;5058524;28;20207;-58
2023/04/23 06:13:04;;;;;;;15.60;12.40;;;10.70;99.90;;;;;;5058951;28;20627;-57
2023/04/23 06:15:31;;;;;;;16.57;12.20;;;10.80;99.90;;;;;;5038435;28;20607;-57
2023/04/23 06:17:58;;;;;;;17.87;12.47;;;10.90;99.90;;;;;;5056184;28;20667;-60
2023/04/23 06:20:25;;;;;;;15.23;11.73;;;10.90;99.90;;;;;;5070723;28;20265;-58
2023/04/23 06:22:52;;;;;;;15.37;11.80;;;10.90;99.90;;;;;;5070193;28;20672;-58
2023/04/23 06:25:19;;;;;;;18.07;11.07;;;10.90;99.90;;;;;;5050853;28;20210;-58
2023/04/23 06:27:46;;;;;;;16.43;10.93;;;11.00;99.90;;;;;;5057916;28;20206;-59
2023/04/23 06:30:13;;;;;;;13.50;11.03;;;11.20;99.90;;;;;;5051722;28;21005;-59
2023/04/23 06:32:40;;;;;;;11.83;10.40;;;11.30;99.90;;;;;;5037725;28;20219;-59
2023/04/23 06:35:07;;;;;;;13.40;10.20;;;11.50;99.90;;;;;;5048685;28;20392;-59
2023/04/23 06:37:34;;;;;;;17.00;9.63;;;11.60;99.90;;;;;;5068648;28;20198;-58
2023/04/23 06:40:01;;;;;;;14.63;11.20;;;11.70;99.90;;;;;;5069017;28;21155;-58
2023/04/23 06:42:28;;;;;;;15.90;10.33;;;11.80;99.90;;;;;;5056605;28;20640;-58
2023/04/23 06:44:58;;;;;;;13.73;9.40;;;11.80;99.90;;;;;;5076215;28;20565;-59
2023/04/23 06:47:25;;;;;;;12.20;9.70;;;12.10;99.90;;;;;;5077473;28;20282;-60
2023/04/23 06:49:51;;;;;;;10.27;9.17;;;12.10;99.90;;;;;;5077539;28;20332;-59
2023/04/23 06:52:18;;;;;;;11.30;9.10;;;12.30;99.90;;;;;;5076365;28;20202;-58
2023/04/23 06:54:45;;;;;;;9.67;8.33;;;12.40;99.90;;;;;;5071319;28;20199;-59
2023/04/23 06:57:12;;;;;;;10.30;8.53;;;12.50;99.90;;;;;;5053941;28;20752;-58
2023/04/23 06:59:39;;;;;;;12.53;8.43;;;12.50;99.90;;;;;;5055874;28;20719;-61
2023/04/23 07:02:06;;;;;;;10.00;8.67;;;12.60;99.90;;;;;;5073560;28;20206;-59
2023/04/23 07:04:33;;;;;;;11.67;8.40;;;12.70;99.90;;;;;;5073099;28;20222;-58
2023/04/23 07:07:00;;;;;;;10.63;8.27;;;12.80;99.90;;;;;;5075020;28;20194;-59
2023/04/23 07:09:28;;;;;;;9.90;8.07;;;12.80;99.90;;;;;;4712787;28;10000310;-58
2023/04/23 07:11:55;;;;;;;12.37;7.87;;;12.80;99.90;;;;;;5061472;28;21434;-58
2023/04/23 07:14:22;;;;;;;11.33;8.33;;;12.80;99.90;;;;;;5069273;28;20538;-59
2023/04/23 07:16:48;;;;;;;10.80;8.77;;;12.90;99.90;;;;;;5053155;28;20207;-58
2023/04/23 07:19:15;;;;;;;11.37;8.23;;;12.90;99.90;;;;;;5070630;28;20683;-58
2023/04/23 07:21:42;;;;;;;10.23;8.00;;;13.20;99.90;;;;;;5058990;28;20231;-58
2023/04/23 07:24:10;;;;;;;9.97;7.67;;;13.60;99.90;;;;;;5067172;28;20209;-58
2023/04/23 07:26:36;;;;;;;12.33;8.23;;;13.30;99.90;;;;;;5052161;28;20231;-58
2023/04/23 07:29:09;;;;;;;10.20;7.20;;;13.60;99.90;;;;;;5071886;28;20315;-58
2023/04/23 07:31:38;;;;;;;10.83;7.63;;;13.20;99.90;;;;;;5070526;28;20200;-58
2023/04/23 07:34:05;;;;;;;7.93;6.30;;;13.30;99.90;;;;;;5066796;28;20199;-58
2023/04/23 07:36:32;;;;;;;8.10;6.67;;;13.20;99.90;;;;;;5059118;28;20237;-58
2023/04/23 07:38:59;;;;;;;9.87;6.37;;;13.40;99.90;;;;;;5069523;28;20216;-59
2023/04/23 07:41:26;;;;;;;8.03;6.63;;;13.60;99.90;;;;;;5048520;28;20263;-59
2023/04/23 07:43:53;;;;;;;9.57;6.40;;;13.80;99.90;;;;;;5072981;28;20279;-63
2023/04/23 07:46:20;;;;;;;9.30;6.13;;;13.80;99.90;;;;;;5046971;28;20199;-59
2023/04/23 07:48:47;;;;;;;8.90;6.40;;;14.00;99.90;;;;;;5054248;28;20226;-59
2023/04/23 07:51:14;;;;;;;10.47;5.80;;;14.00;99.90;;;;;;5054822;28;20210;-59
2023/04/23 07:53:41;;;;;;;6.80;5.20;;;13.90;99.90;;;;;;5056036;28;20582;-59
2023/04/23 07:56:09;;;;;;;8.17;5.30;;;14.00;99.90;;;;;;5071161;28;20595;-59
2023/04/23 07:58:36;;;;;;;7.77;5.90;;;14.00;99.90;;;;;;5064380;28;20230;-61
2023/04/23 08:01:03;;;;;;;11.70;5.60;;;14.10;99.90;;;;;;5050260;28;21120;-62
2023/04/23 08:03:29;;;;;;;7.00;5.10;;;14.10;99.90;;;;;;5070254;28;20287;-59
2023/04/23 08:05:57;;;;;;;9.70;5.40;;;14.40;99.90;;;;;;5066271;28;20221;-58
2023/04/23 08:08:23;;;;;;;9.40;4.80;;;14.60;99.90;;;;;;5071867;28;20205;-58
2023/04/23 08:10:50;;;;;;;11.73;5.50;;;14.60;99.90;;;;;;5054690;28;20240;-58
2023/04/23 08:13:18;;;;;;;9.43;5.43;;;14.60;99.90;;;;;;5075083;28;20278;-58
2023/04/23 08:15:45;;;;;;;6.47;4.63;;;14.50;99.90;;;;;;5057234;28;20268;-59
2023/04/23 08:18:12;;;;;;;7.03;4.73;;;14.50;99.90;;;;;;5065292;28;20226;-60
2023/04/23 08:20:38;;;;;;;7.73;4.80;;;15.00;99.90;;;;;;5075355;28;20202;-59
2023/04/23 08:23:06;;;;;;;10.30;4.80;;;15.10;99.90;;;;;;5053067;28;20566;-58
2023/04/23 08:25:33;;;;;;;8.67;5.10;;;15.00;99.90;;;;;;5053382;28;20892;-58
2023/04/23 08:28:00;;;;;;;6.70;4.40;;;14.90;99.90;;;;;;5076381;28;20245;-60
2023/04/23 08:30:27;;;;;;;8.60;4.10;;;15.00;99.90;;;;;;5074736;28;20253;-59
2023/04/23 08:32:54;;;;;;;6.33;3.93;;;15.20;99.90;;;;;;5072039;28;20695;-58
2023/04/23 08:35:22;;;;;;;7.77;4.33;;;15.20;99.90;;;;;;5073931;28;20206;-59
2023/04/23 08:37:49;;;;;;;7.33;4.10;;;15.20;99.90;;;;;;5072289;28;20195;-59
2023/04/23 08:40:16;;;;;;;6.90;4.33;;;15.60;99.90;;;;;;5069800;28;20615;-61
2023/04/23 08:42:57;;;;;;;10.97;4.30;;;16.00;99.90;;;;;;5073615;28;20682;-60
2023/04/23 08:45:25;;;;;;;6.37;3.73;;;15.50;99.90;;;;;;5056096;28;20378;-59
2023/04/23 08:47:56;;;;;;;7.60;3.93;;;15.60;99.90;;;;;;5052909;28;20872;-59
2023/04/23 08:50:28;;;;;;;8.47;3.67;;;15.80;99.90;;;;;;5074917;28;20218;-59
2023/04/23 08:52:57;;;;;;;5.97;3.63;;;15.80;99.90;;;;;;5072501;28;20308;-60
2023/04/23 08:55:24;;;;;;;8.83;3.67;;;16.10;99.90;;;;;;5053515;28;20339;-60
2023/04/23 08:57:51;;;;;;;6.93;3.43;;;15.80;99.90;;;;;;5055700;28;20203;-60
2023/04/23 09:00:21;;;;;;;7.50;3.70;;;16.10;99.90;;;;;;5073423;28;20261;-59
2023/04/23 09:02:49;;;;;;;6.73;3.00;;;16.40;99.90;;;;;;5057416;28;20208;-60
2023/04/23 09:05:19;;;;;;;5.07;2.70;;;16.50;99.90;;;;;;5052167;28;20199;-60
2023/04/23 09:07:46;;;;;;;5.80;3.00;;;16.40;99.90;;;;;;5073934;28;20215;-59
2023/04/23 09:10:14;;;;;;;7.50;2.77;;;16.10;99.90;;;;;;5066158;28;20312;-59
2023/04/23 09:12:44;;;;;;;7.47;3.40;;;16.10;99.90;;;;;;5075519;28;20196;-59
2023/04/23 09:15:12;;;;;;;7.53;3.40;;;16.30;99.90;;;;;;5069969;28;20287;-59
2023/04/23 09:17:42;;;;;;;11.20;3.73;;;16.40;99.90;;;;;;5053935;28;20285;-59
2023/04/23 09:20:11;;;;;;;8.03;2.83;;;16.60;99.90;;;;;;5071753;28;20210;-59
2023/04/23 09:22:46;;;;;;;8.37;2.83;;;16.30;99.90;;;;;;5078020;28;20199;-59
2023/04/23 09:25:23;;;;;;;6.07;2.50;;;16.70;99.90;;;;;;5072111;28;20208;-59
2023/04/23 09:27:51;;;;;;;7.93;2.80;;;16.50;99.90;;;;;;5076652;28;20216;-58
2023/04/23 09:30:19;;;;;;;4.70;2.90;;;16.60;99.90;;;;;;5073600;28;20264;-59
2023/04/23 09:32:46;;;;;;;5.90;2.60;;;16.60;99.90;;;;;;5072834;28;20209;-58
2023/04/23 09:35:15;;;;;;;5.47;2.47;;;16.60;99.90;;;;;;5053362;28;20204;-59
2023/04/23 09:37:47;;;;;;;3.53;2.10;;;16.50;99.90;;;;;;5077065;28;20332;-59
2023/04/23 09:40:18;;;;;;;9.63;1.53;;;17.00;99.90;;;;;;5070935;28;20258;-59
2023/04/23 09:42:51;;;;;;;4.37;3.10;;;17.10;99.90;;;;;;5072341;28;20232;-59
2023/04/23 09:45:19;;;;;;;2.67;1.70;;;17.20;99.90;;;;;;5071216;28;20252;-59
2023/04/23 09:47:51;;;;;;;4.20;1.50;;;17.40;99.90;;;;;;5075006;28;20611;-59
2023/04/23 09:50:37;;;;;;;3.23;1.50;;;17.00;99.90;;;;;;5072797;28;20300;-58
2023/04/23 09:53:06;;;;;;;2.93;1.47;;;16.70;99.90;;;;;;5051950;28;20200;-60
2023/04/23 09:55:38;;;;;;;3.87;1.37;;;16.70;99.90;;;;;;5054974;28;20237;-58
2023/04/23 09:58:10;;;;;;;4.27;1.30;;;16.90;99.90;;;;;;5055917;28;20598;-59
2023/04/23 10:00:38;;;;;;;3.57;1.40;;;16.80;99.90;;;;;;5053555;28;20235;-59
2023/04/23 10:03:07;;;;;;;3.90;1.40;;;16.90;99.90;;;;;;5050474;28;20208;-58
2023/04/23 10:05:41;;;;;;;3.97;1.50;;;16.90;99.90;;;;;;5067690;28;20210;-59
2023/04/23 10:08:13;;;;;;;7.27;1.80;;;16.80;99.90;;;;;;5068209;28;20284;-58
2023/04/23 10:10:40;;;;;;;6.07;1.83;;;16.50;99.90;;;;;;5073619;28;20293;-58
2023/04/23 10:13:26;;;;;;;4.80;1.37;;;16.40;99.90;;;;;;5070623;28;20200;-59
2023/04/23 10:15:55;;;;;;;5.07;1.53;;;16.60;99.90;;;;;;5070375;28;20287;-59
2023/04/23 10:18:32;;;;;;;4.70;1.47;;;16.70;99.90;;;;;;5067766;28;20223;-59
2023/04/23 10:21:01;;;;;;;5.33;1.60;;;16.50;99.90;;;;;;5066457;28;20205;-59
2023/04/23 10:23:29;;;;;;;4.63;1.63;;;16.40;99.90;;;;;;5071571;28;20228;-58
2023/04/23 10:26:00;;;;;;;6.20;1.70;;;16.40;99.90;;;;;;5069909;28;20197;-59
2023/04/23 10:28:31;;;;;;;4.50;1.47;;;16.40;99.90;;;;;;5069789;28;21120;-59
2023/04/23 10:30:59;;;;;;;4.70;1.77;;;16.40;99.90;;;;;;5070700;28;20615;-58
2023/04/23 10:33:30;;;;;;;3.47;1.33;;;16.60;99.90;;;;;;5073998;28;20614;-59
2023/04/23 10:36:08;;;;;;;6.13;1.50;;;16.60;99.90;;;;;;5069965;28;20291;-59
2023/04/23 10:38:36;;;;;;;3.67;1.50;;;16.70;99.90;;;;;;5068281;28;20201;-58
2023/04/23 10:41:23;;;;;;;3.40;1.37;;;16.90;99.90;;;;;;5069634;28;20257;-59
2023/04/23 10:43:52;;;;;;;3.03;1.53;;;17.00;99.90;;;;;;5071634;28;20737;-59
2023/04/23 10:46:29;;;;;;;5.80;2.00;;;17.10;99.90;;;;;;5073354;28;20291;-59
2023/04/23 10:49:23;;;;;;;5.90;2.03;;;16.90;99.90;;;;;;5050769;28;20208;-59
2023/04/23 10:52:07;;;;;;;3.87;1.40;;;17.10;99.90;;;;;;5070514;28;20226;-59
2023/04/23 10:54:49;;;;;;;7.10;1.53;;;17.10;99.90;;;;;;5069383;28;20670;-58
2023/04/23 10:57:16;;;;;;;5.03;1.20;;;16.90;99.90;;;;;;5035907;28;20273;-59
2023/04/23 10:59:54;;;;;;;3.57;1.50;;;16.70;99.90;;;;;;5034216;28;20217;-59
2023/04/23 11:02:25;;;;;;;3.83;1.27;;;16.50;99.90;;;;;;5034879;28;20206;-59
2023/04/23 11:04:57;;;;;;;5.57;1.43;;;16.70;99.90;;;;;;5030666;28;20204;-59
2023/04/23 11:07:32;;;;;;;2.73;1.47;;;16.60;99.90;;;;;;5034769;28;20245;-59
2023/04/23 11:10:10;;;;;;;5.37;1.80;;;17.00;99.90;;;;;;5028157;28;20226;-59
2023/04/23 11:12:38;;;;;;;3.67;1.60;;;17.00;99.90;;;;;;5030485;28;20203;-59
2023/04/23 11:15:12;;;;;;;4.57;1.33;;;16.80;99.90;;;;;;5029024;28;20295;-59
2023/04/23 11:17:42;;;;;;;3.90;1.30;;;16.80;99.90;;;;;;5028163;28;20214;-59
2023/04/23 11:20:12;;;;;;;3.33;1.47;;;16.60;99.90;;;;;;5032647;28;20297;-59
2023/04/23 11:22:43;;;;;;;3.33;1.37;;;16.60;99.90;;;;;;5034232;28;20203;-58
2023/04/23 11:25:12;;;;;;;2.13;1.27;;;16.60;99.90;;;;;;5028542;28;20664;-58
2023/04/23 11:27:42;;;;;;;5.57;1.53;;;16.70;99.90;;;;;;5029756;28;20207;-59
2023/04/23 11:30:16;;;;;;;2.63;1.47;;;16.70;99.90;;;;;;5031236;28;20247;-59
2023/04/23 11:32:50;;;;;;;2.53;1.43;;;16.80;99.90;;;;;;5030138;28;20202;-59
2023/04/23 11:35:20;;;;;;;4.53;1.60;;;16.80;99.90;;;;;;5023929;28;20210;-58
2023/04/23 11:37:48;;;;;;;4.33;1.60;;;16.70;99.90;;;;;;5031165;28;20234;-59
2023/04/23 11:40:19;;;;;;;3.90;1.03;;;16.60;99.90;;;;;;5032591;28;20538;-58
2023/04/23 11:42:53;;;;;;;1.90;1.40;;;16.50;99.90;;;;;;5033448;28;20202;-59
2023/04/23 11:45:25;;;;;;;2.40;1.27;;;16.50;99.90;;;;;;5026470;28;20225;-59
2023/04/23 11:47:56;;;;;;;3.43;1.30;;;16.50;99.90;;;;;;5034761;28;20206;-59
2023/04/23 11:50:31;;;;;;;5.23;1.57;;;16.40;99.90;;;;;;5031622;28;20327;-59
2023/04/23 11:53:09;;;;;;;2.90;1.40;;;16.50;99.90;;;;;;5041666;28;20195;-59
2023/04/23 11:55:37;;;;;;;3.17;1.50;;;16.50;99.90;;;;;;5037976;28;20289;-58
2023/04/23 11:58:04;;;;;;;3.37;1.30;;;16.60;99.90;;;;;;5074945;28;20492;-59
2023/04/23 12:00:31;;;;;;;2.10;1.27;;;16.70;99.90;;;;;;4695612;28;10000453;-59
2023/04/23 12:02:59;;;;;;;2.83;1.50;;;16.70;99.90;;;;;;5050031;28;20240;-59
2023/04/23 12:05:28;;;;;;;5.03;1.57;;;16.60;99.90;;;;;;5075439;28;20216;-59
2023/04/23 12:08:06;;;;;;;3.67;1.53;;;16.60;99.90;;;;;;5079494;28;20258;-59
2023/04/23 12:10:42;;;;;;;4.70;1.30;;;16.90;99.90;;;;;;5079256;28;20318;-58
2023/04/23 12:13:21;;;;;;;3.13;1.20;;;17.30;99.90;;;;;;5078847;28;20781;-58
2023/04/23 12:15:55;;;;;;;3.77;1.20;;;17.30;99.90;;;;;;5078649;28;20241;-59
2023/04/23 12:18:40;;;;;;;2.60;1.20;;;17.10;99.90;;;;;;5078494;28;20330;-59
2023/04/23 12:21:09;;;;;;;3.57;1.53;;;17.20;99.90;;;;;;5063033;28;20210;-59
2023/04/23 12:23:37;;;;;;;5.03;1.30;;;17.50;99.90;;;;;;5081369;28;20591;-59
2023/04/23 12:26:09;;;;;;;3.30;1.00;;;17.90;99.90;;;;;;5081661;28;20214;-59
2023/04/23 12:28:51;;;;;;;2.67;1.20;;;17.70;99.90;;;;;;5081236;28;20298;-58
2023/04/23 12:31:20;;;;;;;3.07;1.10;;;17.50;99.90;;;;;;5078758;28;20772;-59
2023/04/23 12:33:56;;;;;;;3.23;1.30;;;17.30;99.90;;;;;;5062180;28;20226;-59
2023/04/23 12:36:27;;;;;;;6.43;2.10;;;17.30;99.90;;;;;;5082500;28;20561;-59
2023/04/23 12:38:54;;;;;;;2.83;1.37;;;17.30;99.90;;;;;;5052380;28;20203;-60
2023/04/23 12:41:21;;;;;;;3.37;1.23;;;17.40;99.90;;;;;;5063553;28;20275;-58
2023/04/23 12:43:49;;;;;;;4.43;1.20;;;17.30;99.90;;;;;;5080087;28;20282;-58
2023/04/23 12:46:16;;;;;;;3.47;1.07;;;17.30;99.90;;;;;;5063435;28;20250;-59